Portada
METAR-TAF:

METAR-TAF

Aeroports :

Baza 71 Aeriană

Câmpia Turzii, Romania

latitud: 46-30-12N, longitud: 023-53-07E, altitud: 324 m

Observació

L'informe es va fer fa 6 hores i 29 minuts, a les 20:00 UTC
Vent 9 kt del Nord
Temperatura 12°C
Humitat 71%
Pressió 1022 hPa
Visibilitat 10 km o més
Cel ennuvolat a una alçada de 6000 ft

METAR: LRCT 272000Z 35009KT 9999 BKN060 12/07 Q1022 BLU BLU

Hora: 05:29 (02:29 UTC)

Pronòstic

L'informe es va fer fa 9 hores i 29 minuts, a les 17:00 UTC
Pronòstic vàlid del 27 a les 18 UTC al 28 a les 18 UTC
Vent 12 kt del Nord
Visibilitat 10 km o més
Cel ennuvolat a una alçada de 6000 ft
Temporalment
l' 28 a les 10 UTC al 28 a les 16 UTC
Vent 10 kt amb direcció variable amb ràfegues de 20 kt
Visibilitat: 7000 m
Núvols disperses a una alçada de 3000 ft, Cumulonimbus.
Cel ennuvolat a una alçada de 5000 ft
xàfecs de pluja

TAF: LRCT 271700Z 2718/2818 35012KT 9999 BKN060 TEMPO 2810/2816 VRB10G20KT 7000 SHRA SCT030CB BKN050

Observacions i pronòstics meteorològics de més de 4000 aeroports (METAR i TAF).

Les estacions disponibles són els punts grocs i vermells al mapa.

Posi el ratolí al punt desitjat per veure el nom de l'estació.

Feu clic per veure les observacions i els pronòstics meteorològics.

Per canviar el mapa: feu clic els botons verds amb una creu de color negre per apropar; al botó verd amb un guió per allunyar la imatge; o en les fletxes verdes per a mapes adjacents.


METAR-TAF: